sensor_id;sensor_type;location;lat;lon;timestamp;pressure;altitude;pressure_sealevel;temperature;humidity
66627;BME280;53498;50.422;14.912;2023-05-10T00:01:01;98772.28;;;10.87;57.30
66627;BME280;53498;50.422;14.912;2023-05-10T00:03:26;98775.78;;;10.87;57.29
66627;BME280;53498;50.422;14.912;2023-05-10T00:05:52;98772.31;;;10.85;57.46
66627;BME280;53498;50.422;14.912;2023-05-10T00:08:18;98776.63;;;10.86;57.53
66627;BME280;53498;50.422;14.912;2023-05-10T00:10:43;98764.50;;;10.82;57.81
66627;BME280;53498;50.422;14.912;2023-05-10T00:13:09;98760.19;;;10.80;58.32
66627;BME280;53498;50.422;14.912;2023-05-10T00:15:34;98761.06;;;10.77;58.11
66627;BME280;53498;50.422;14.912;2023-05-10T00:18:00;98757.63;;;10.74;57.85
66627;BME280;53498;50.422;14.912;2023-05-10T00:20:25;98755.00;;;10.81;58.07
66627;BME280;53498;50.422;14.912;2023-05-10T00:22:51;98755.00;;;10.78;58.08
66627;BME280;53498;50.422;14.912;2023-05-10T00:25:17;98756.75;;;10.73;58.56
66627;BME280;53498;50.422;14.912;2023-05-10T00:27:43;98762.84;;;10.71;58.62
66627;BME280;53498;50.422;14.912;2023-05-10T00:30:08;98749.84;;;10.69;59.01
66627;BME280;53498;50.422;14.912;2023-05-10T00:32:34;98748.13;;;10.70;59.11
66627;BME280;53498;50.422;14.912;2023-05-10T00:34:59;98749.00;;;10.65;58.80
66627;BME280;53498;50.422;14.912;2023-05-10T00:37:25;98745.53;;;10.65;59.01
66627;BME280;53498;50.422;14.912;2023-05-10T00:39:50;98746.44;;;10.58;59.61
66627;BME280;53498;50.422;14.912;2023-05-10T00:42:16;98754.25;;;10.55;59.39
66627;BME280;53498;50.422;14.912;2023-05-10T00:44:42;98741.22;;;10.61;59.80
66627;BME280;53498;50.422;14.912;2023-05-10T00:47:08;98736.91;;;10.55;59.79
66627;BME280;53498;50.422;14.912;2023-05-10T00:49:34;98747.34;;;10.51;60.07
66627;BME280;53498;50.422;14.912;2023-05-10T00:52:01;98738.69;;;10.49;59.94
66627;BME280;53498;50.422;14.912;2023-05-10T00:54:27;98743.00;;;10.50;60.08
66627;BME280;53498;50.422;14.912;2023-05-10T00:56:53;98728.31;;;10.44;60.87
66627;BME280;53498;50.422;14.912;2023-05-10T00:59:18;98734.41;;;10.38;60.77
66627;BME280;53498;50.422;14.912;2023-05-10T01:01:45;98730.97;;;10.30;61.45
66627;BME280;53498;50.422;14.912;2023-05-10T01:04:11;98731.84;;;10.28;61.52
66627;BME280;53498;50.422;14.912;2023-05-10T01:06:39;98730.09;;;10.34;61.49
66627;BME280;53498;50.422;14.912;2023-05-10T01:09:05;98730.94;;;10.33;61.56
66627;BME280;53498;50.422;14.912;2023-05-10T01:11:34;98730.09;;;10.34;61.28
66627;BME280;53498;50.422;14.912;2023-05-10T01:14:00;98723.13;;;10.36;61.68
66627;BME280;53498;50.422;14.912;2023-05-10T01:16:27;98727.50;;;10.31;61.84
66627;BME280;53498;50.422;14.912;2023-05-10T01:18:54;98722.31;;;10.31;61.87
66627;BME280;53498;50.422;14.912;2023-05-10T01:21:41;98736.19;;;10.29;62.19
66627;BME280;53498;50.422;14.912;2023-05-10T01:24:09;98722.31;;;10.31;62.21
66627;BME280;53498;50.422;14.912;2023-05-10T01:41:19;98714.53;;;10.19;62.74
66627;BME280;53498;50.422;14.912;2023-05-10T01:44:16;98718.00;;;10.19;62.93
66627;BME280;53498;50.422;14.912;2023-05-10T01:46:43;98717.13;;;10.19;62.75
66627;BME280;53498;50.422;14.912;2023-05-10T01:49:26;98723.19;;;10.19;63.09
66627;BME280;53498;50.422;14.912;2023-05-10T01:51:59;98718.84;;;10.20;62.83
66627;BME280;53498;50.422;14.912;2023-05-10T01:54:27;98716.28;;;10.18;63.03
66627;BME280;53498;50.422;14.912;2023-05-10T01:57:00;98713.66;;;10.17;63.03
66627;BME280;53498;50.422;14.912;2023-05-10T01:59:34;98715.38;;;10.19;62.82
66627;BME280;53498;50.422;14.912;2023-05-10T02:02:06;98719.75;;;10.16;62.85
66627;BME280;53498;50.422;14.912;2023-05-10T02:04:38;98720.59;;;10.19;63.07
66627;BME280;53498;50.422;14.912;2023-05-10T02:07:05;98713.66;;;10.14;63.16
66627;BME280;53498;50.422;14.912;2023-05-10T02:09:33;98712.81;;;10.13;63.24
66627;BME280;53498;50.422;14.912;2023-05-10T02:12:01;98709.34;;;10.16;63.03
66627;BME280;53498;50.422;14.912;2023-05-10T02:14:30;98706.72;;;10.19;63.12
66627;BME280;53498;50.422;14.912;2023-05-10T02:16:58;98714.56;;;10.10;63.75
66627;BME280;53498;50.422;14.912;2023-05-10T02:19:25;98708.47;;;10.14;63.38
66627;BME280;53498;50.422;14.912;2023-05-10T02:21:55;98699.81;;;10.12;63.64
66627;BME280;53498;50.422;14.912;2023-05-10T02:24:22;98705.00;;;10.12;64.06
66627;BME280;53498;50.422;14.912;2023-05-10T02:26:54;98705.91;;;10.09;64.02
66627;BME280;53498;50.422;14.912;2023-05-10T02:29:23;98712.84;;;10.04;64.22
66627;BME280;53498;50.422;14.912;2023-05-10T02:31:52;98708.50;;;10.02;64.47
66627;BME280;53498;50.422;14.912;2023-05-10T02:34:19;98707.63;;;10.03;64.15
66627;BME280;53498;50.422;14.912;2023-05-10T02:36:46;98699.84;;;10.03;64.77
66627;BME280;53498;50.422;14.912;2023-05-10T02:39:13;98700.75;;;10.00;64.43
66627;BME280;53498;50.422;14.912;2023-05-10T02:41:43;98699.84;;;10.00;64.54
66627;BME280;53498;50.422;14.912;2023-05-10T02:44:11;98705.09;;;9.96;64.48
66627;BME280;53498;50.422;14.912;2023-05-10T02:46:38;98704.22;;;9.94;64.44
66627;BME280;53498;50.422;14.912;2023-05-10T02:49:04;98696.44;;;9.94;64.37
66627;BME280;53498;50.422;14.912;2023-05-10T02:51:31;98706.81;;;9.90;64.58
66627;BME280;53498;50.422;14.912;2023-05-10T02:54:02;98707.69;;;9.95;64.65
66627;BME280;53498;50.422;14.912;2023-05-10T02:56:33;98705.09;;;9.92;64.44
66627;BME280;53498;50.422;14.912;2023-05-10T02:58:59;98695.56;;;9.86;64.61
66627;BME280;53498;50.422;14.912;2023-05-10T03:01:25;98704.25;;;9.78;64.98
66627;BME280;53498;50.422;14.912;2023-05-10T03:03:51;98699.94;;;9.84;65.05
66627;BME280;53498;50.422;14.912;2023-05-10T03:06:16;98710.31;;;9.84;65.26
66627;BME280;53498;50.422;14.912;2023-05-10T03:08:43;98707.72;;;9.81;65.29
66627;BME280;53498;50.422;14.912;2023-05-10T03:16:32;98712.94;;;9.73;66.02
66627;BME280;53498;50.422;14.912;2023-05-10T03:21:41;98714.69;;;9.61;66.62
66627;BME280;53498;50.422;14.912;2023-05-10T03:24:12;98711.22;;;9.59;66.79
66627;BME280;53498;50.422;14.912;2023-05-10T03:26:38;98713.00;;;9.44;67.67
66627;BME280;53498;50.422;14.912;2023-05-10T03:29:05;98709.53;;;9.38;68.13
66627;BME280;53498;50.422;14.912;2023-05-10T03:31:31;98706.06;;;9.30;68.43
66627;BME280;53498;50.422;14.912;2023-05-10T03:33:57;98712.13;;;9.24;68.73
66627;BME280;53498;50.422;14.912;2023-05-10T03:36:23;98707.81;;;9.27;69.50
66627;BME280;53498;50.422;14.912;2023-05-10T03:38:49;98711.28;;;9.20;69.49
66627;BME280;53498;50.422;14.912;2023-05-10T03:41:14;98710.41;;;9.26;69.08
66627;BME280;53498;50.422;14.912;2023-05-10T03:43:40;98705.22;;;9.17;69.27
66627;BME280;53498;50.422;14.912;2023-05-10T03:46:06;98707.81;;;9.20;68.79
66627;BME280;53498;50.422;14.912;2023-05-10T03:48:32;98708.69;;;9.19;69.42
66627;BME280;53498;50.422;14.912;2023-05-10T03:50:57;98706.94;;;9.21;68.80
66627;BME280;53498;50.422;14.912;2023-05-10T03:53:24;98698.28;;;9.23;68.91
66627;BME280;53498;50.422;14.912;2023-05-10T03:55:49;98710.41;;;9.20;68.98
66627;BME280;53498;50.422;14.912;2023-05-10T03:58:15;98698.31;;;9.34;69.04
66627;BME280;53498;50.422;14.912;2023-05-10T04:00:40;98699.09;;;9.71;67.75
66627;BME280;53498;50.422;14.912;2023-05-10T04:03:14;98699.09;;;9.70;66.99
66627;BME280;53498;50.422;14.912;2023-05-10T04:05:39;98697.38;;;9.55;67.71
66627;BME280;53498;50.422;14.912;2023-05-10T04:08:05;98703.41;;;9.71;67.40
66627;BME280;53498;50.422;14.912;2023-05-10T04:10:31;98694.75;;;9.78;66.80
66627;BME280;53498;50.422;14.912;2023-05-10T04:12:57;98698.19;;;9.80;66.71
66627;BME280;53498;50.422;14.912;2023-05-10T04:15:22;98696.47;;;9.76;67.28
66627;BME280;53498;50.422;14.912;2023-05-10T04:17:48;98703.41;;;9.71;67.08
66627;BME280;53498;50.422;14.912;2023-05-10T04:20:14;98704.28;;;9.70;67.50
66627;BME280;53498;50.422;14.912;2023-05-10T04:22:40;98699.94;;;9.80;68.49
66627;BME280;53498;50.422;14.912;2023-05-10T04:25:06;98697.22;;;10.10;67.72
66627;BME280;53498;50.422;14.912;2023-05-10T04:27:32;98693.56;;;10.54;65.31
66627;BME280;53498;50.422;14.912;2023-05-10T04:29:58;98689.25;;;10.52;65.59
66627;BME280;53498;50.422;14.912;2023-05-10T04:32:23;98692.38;;;11.04;63.49
66627;BME280;53498;50.422;14.912;2023-05-10T04:34:49;98693.19;;;11.13;62.88
66627;BME280;53498;50.422;14.912;2023-05-10T04:37:16;98693.81;;;11.36;62.21
66627;BME280;53498;50.422;14.912;2023-05-10T04:39:42;98684.66;;;10.94;64.48
66627;BME280;53498;50.422;14.912;2023-05-10T04:42:08;98687.28;;;10.91;64.50
66627;BME280;53498;50.422;14.912;2023-05-10T04:44:33;98694.88;;;11.15;64.34
66627;BME280;53498;50.422;14.912;2023-05-10T04:46:59;98696.22;;;11.56;62.05
66627;BME280;53498;50.422;14.912;2023-05-10T04:49:25;98702.78;;;11.97;61.10
66627;BME280;53498;50.422;14.912;2023-05-10T04:51:51;98692.88;;;12.25;58.91
66627;BME280;53498;50.422;14.912;2023-05-10T04:54:16;98698.06;;;12.26;58.44
66627;BME280;53498;50.422;14.912;2023-05-10T04:56:42;98696.56;;;12.10;58.77
66627;BME280;53498;50.422;14.912;2023-05-10T04:59:07;98703.13;;;12.39;57.86
66627;BME280;53498;50.422;14.912;2023-05-10T05:01:33;98700.88;;;12.11;58.81
66627;BME280;53498;50.422;14.912;2023-05-10T05:03:58;98696.44;;;12.19;59.01
66627;BME280;53498;50.422;14.912;2023-05-10T05:06:25;98696.88;;;11.78;59.52
66627;BME280;53498;50.422;14.912;2023-05-10T05:08:51;98692.53;;;11.77;59.43
66627;BME280;53498;50.422;14.912;2023-05-10T05:11:17;98707.97;;;11.98;58.48
66627;BME280;53498;50.422;14.912;2023-05-10T05:13:43;98701.81;;;12.07;58.77
66627;BME280;53498;50.422;14.912;2023-05-10T05:16:08;98713.97;;;12.05;59.07
66627;BME280;53498;50.422;14.912;2023-05-10T05:18:34;98719.38;;;11.90;58.99
66627;BME280;53498;50.422;14.912;2023-05-10T05:21:00;98721.16;;;11.88;59.16
66627;BME280;53498;50.422;14.912;2023-05-10T05:23:26;98702.06;;;11.78;59.74
66627;BME280;53498;50.422;14.912;2023-05-10T05:25:52;98703.63;;;11.99;59.30
66627;BME280;53498;50.422;14.912;2023-05-10T05:28:18;98692.28;;;12.04;59.55
66627;BME280;53498;50.422;14.912;2023-05-10T05:30:44;98705.28;;;12.06;59.04
66627;BME280;53498;50.422;14.912;2023-05-10T05:33:10;98688.59;;;12.21;59.06
66627;BME280;53498;50.422;14.912;2023-05-10T05:35:36;98698.19;;;12.17;59.14
66627;BME280;53498;50.422;14.912;2023-05-10T05:38:01;98698.22;;;12.14;58.74
66627;BME280;53498;50.422;14.912;2023-05-10T05:40:27;98696.53;;;12.12;59.40
66627;BME280;53498;50.422;14.912;2023-05-10T05:42:55;98689.31;;;12.31;59.55
66627;BME280;53498;50.422;14.912;2023-05-10T05:45:21;98694.38;;;12.44;58.69
66627;BME280;53498;50.422;14.912;2023-05-10T05:47:46;98681.16;;;12.57;58.89
66627;BME280;53498;50.422;14.912;2023-05-10T05:50:12;98677.44;;;12.71;58.15
66627;BME280;53498;50.422;14.912;2023-05-10T05:52:38;98689.13;;;12.46;58.97
66627;BME280;53498;50.422;14.912;2023-05-10T05:55:04;98685.72;;;13.00;57.90
66627;BME280;53498;50.422;14.912;2023-05-10T05:57:30;98682.63;;;13.32;56.70
66627;BME280;53498;50.422;14.912;2023-05-10T05:59:55;98691.16;;;13.40;56.50
66627;BME280;53498;50.422;14.912;2023-05-10T06:02:21;98687.50;;;13.50;56.50
66627;BME280;53498;50.422;14.912;2023-05-10T06:04:46;98683.81;;;13.63;56.38
66627;BME280;53498;50.422;14.912;2023-05-10T06:07:12;98688.41;;;14.78;52.92
66627;BME280;53498;50.422;14.912;2023-05-10T06:09:38;98687.03;;;15.70;49.13
66627;BME280;53498;50.422;14.912;2023-05-10T06:12:03;98682.25;;;15.50;49.54
66627;BME280;53498;50.422;14.912;2023-05-10T06:14:29;98680.00;;;15.71;49.59
66627;BME280;53498;50.422;14.912;2023-05-10T06:16:55;98682.72;;;15.32;50.21
66627;BME280;53498;50.422;14.912;2023-05-10T06:19:20;98675.22;;;14.83;51.71
66627;BME280;53498;50.422;14.912;2023-05-10T06:21:46;98673.69;;;14.72;52.66
66627;BME280;53498;50.422;14.912;2023-05-10T06:24:11;98672.03;;;15.06;52.26
66627;BME280;53498;50.422;14.912;2023-05-10T06:26:37;98677.78;;;15.21;51.99
66627;BME280;53498;50.422;14.912;2023-05-10T06:29:03;98676.09;;;14.83;52.54
66627;BME280;53498;50.422;14.912;2023-05-10T06:31:28;98669.94;;;14.45;53.50
66627;BME280;53498;50.422;14.912;2023-05-10T06:33:54;98668.59;;;14.68;53.32
66627;BME280;53498;50.422;14.912;2023-05-10T06:36:19;98674.31;;;14.45;53.90
66627;BME280;53498;50.422;14.912;2023-05-10T06:38:45;98668.31;;;14.78;53.20
66627;BME280;53498;50.422;14.912;2023-05-10T06:41:10;98680.59;;;15.14;52.74
66627;BME280;53498;50.422;14.912;2023-05-10T06:43:36;98670.13;;;15.14;52.60
66627;BME280;53498;50.422;14.912;2023-05-10T06:46:05;98667.78;;;15.01;52.45
66627;BME280;53498;50.422;14.912;2023-05-10T06:48:31;98660.81;;;14.65;53.15
66627;BME280;53498;50.422;14.912;2023-05-10T06:50:57;98666.44;;;15.21;52.29
66627;BME280;53498;50.422;14.912;2023-05-10T06:53:23;98656.84;;;15.20;52.59
66627;BME280;53498;50.422;14.912;2023-05-10T06:55:49;98662.59;;;15.34;51.86
66627;BME280;53498;50.422;14.912;2023-05-10T06:58:14;98662.72;;;15.62;51.18
66627;BME280;53498;50.422;14.912;2023-05-10T07:00:40;98661.44;;;15.79;51.13
66627;BME280;53498;50.422;14.912;2023-05-10T07:03:09;98659.56;;;15.49;50.93
66627;BME280;53498;50.422;14.912;2023-05-10T07:05:35;98660.97;;;15.63;51.08
66627;BME280;53498;50.422;14.912;2023-05-10T07:08:01;98658.75;;;15.47;51.46
66627;BME280;53498;50.422;14.912;2023-05-10T07:10:27;98648.72;;;15.96;50.71
66627;BME280;53498;50.422;14.912;2023-05-10T07:12:52;98663.00;;;16.17;50.55
66627;BME280;53498;50.422;14.912;2023-05-10T07:15:18;98651.16;;;16.02;50.96
66627;BME280;53498;50.422;14.912;2023-05-10T07:17:43;98656.28;;;16.36;50.30
66627;BME280;53498;50.422;14.912;2023-05-10T07:20:09;98667.16;;;16.24;50.89
66627;BME280;53498;50.422;14.912;2023-05-10T07:22:35;98655.84;;;15.91;50.65
66627;BME280;53498;50.422;14.912;2023-05-10T07:25:00;98657.47;;;15.64;51.25
66627;BME280;53498;50.422;14.912;2023-05-10T07:27:26;98656.16;;;16.11;49.74
66627;BME280;53498;50.422;14.912;2023-05-10T07:29:52;98659.84;;;16.04;50.64
66627;BME280;53498;50.422;14.912;2023-05-10T07:32:17;98659.97;;;16.29;49.24
66627;BME280;53498;50.422;14.912;2023-05-10T07:34:43;98644.72;;;16.14;49.59
66627;BME280;53498;50.422;14.912;2023-05-10T07:37:08;98636.81;;;16.43;49.77
66627;BME280;53498;50.422;14.912;2023-05-10T07:39:34;98640.94;;;16.52;49.42
66627;BME280;53498;50.422;14.912;2023-05-10T07:42:00;98636.69;;;16.76;48.43
66627;BME280;53498;50.422;14.912;2023-05-10T07:44:28;98641.88;;;16.20;49.97
66627;BME280;53498;50.422;14.912;2023-05-10T07:46:54;98644.41;;;16.23;50.34
66627;BME280;53498;50.422;14.912;2023-05-10T07:49:21;98640.81;;;16.27;50.15
66627;BME280;53498;50.422;14.912;2023-05-10T07:51:46;98638.31;;;16.52;49.25
66627;BME280;53498;50.422;14.912;2023-05-10T07:54:14;98634.13;;;16.73;48.78
66627;BME280;53498;50.422;14.912;2023-05-10T07:56:39;98643.78;;;16.73;48.50
66627;BME280;53498;50.422;14.912;2023-05-10T07:59:10;98628.06;;;16.71;48.80
66627;BME280;53498;50.422;14.912;2023-05-10T08:01:35;98643.78;;;17.01;47.67
66627;BME280;53498;50.422;14.912;2023-05-10T08:04:01;98632.56;;;16.96;48.45
66627;BME280;53498;50.422;14.912;2023-05-10T08:06:27;98642.06;;;17.00;47.89
66627;BME280;53498;50.422;14.912;2023-05-10T08:08:53;98634.44;;;16.36;49.62
66627;BME280;53498;50.422;14.912;2023-05-10T08:11:20;98634.22;;;16.98;49.25
66627;BME280;53498;50.422;14.912;2023-05-10T08:13:50;98636.19;;;17.18;48.14
66627;BME280;53498;50.422;14.912;2023-05-10T08:16:18;98618.59;;;17.20;47.28
66627;BME280;53498;50.422;14.912;2023-05-10T08:18:44;98624.78;;;17.19;48.38
66627;BME280;53498;50.422;14.912;2023-05-10T08:21:12;98629.09;;;17.47;48.12
66627;BME280;53498;50.422;14.912;2023-05-10T08:23:38;98636.25;;;17.67;47.36
66627;BME280;53498;50.422;14.912;2023-05-10T08:26:03;98639.97;;;17.11;47.64
66627;BME280;53498;50.422;14.912;2023-05-10T08:28:29;98637.19;;;17.14;47.93
66627;BME280;53498;50.422;14.912;2023-05-10T08:30:55;98626.25;;;17.53;47.99
66627;BME280;53498;50.422;14.912;2023-05-10T08:33:21;98624.78;;;16.93;48.05
66627;BME280;53498;50.422;14.912;2023-05-10T08:35:46;98611.97;;;17.35;48.71
66627;BME280;53498;50.422;14.912;2023-05-10T08:38:12;98624.72;;;17.21;47.35
66627;BME280;53498;50.422;14.912;2023-05-10T08:40:40;98628.53;;;17.12;47.44
66627;BME280;53498;50.422;14.912;2023-05-10T08:43:08;98630.78;;;17.48;47.87
66627;BME280;53498;50.422;14.912;2023-05-10T08:45:42;98626.25;;;17.76;46.14
66627;BME280;53498;50.422;14.912;2023-05-10T08:48:10;98629.78;;;17.52;45.76
66627;BME280;53498;50.422;14.912;2023-05-10T08:50:38;98623.63;;;17.53;46.15
66627;BME280;53498;50.422;14.912;2023-05-10T08:53:05;98630.72;;;17.99;45.15
66627;BME280;53498;50.422;14.912;2023-05-10T08:55:32;98625.09;;;17.60;46.04
66627;BME280;53498;50.422;14.912;2023-05-10T08:57:59;98628.19;;;18.20;44.78
66627;BME280;53498;50.422;14.912;2023-05-10T09:00:25;98635.47;;;18.37;44.07
66627;BME280;53498;50.422;14.912;2023-05-10T09:02:52;98645.56;;;18.02;44.71
66627;BME280;53498;50.422;14.912;2023-05-10T09:05:18;98626.59;;;18.16;44.06
66627;BME280;53498;50.422;14.912;2023-05-10T09:07:43;98629.25;;;18.16;44.43
66627;BME280;53498;50.422;14.912;2023-05-10T09:10:10;98619.41;;;17.97;44.82
66627;BME280;53498;50.422;14.912;2023-05-10T09:12:36;98635.66;;;18.09;43.92
66627;BME280;53498;50.422;14.912;2023-05-10T09:15:03;98621.56;;;18.10;44.72
66627;BME280;53498;50.422;14.912;2023-05-10T09:17:30;98617.94;;;18.36;43.73
66627;BME280;53498;50.422;14.912;2023-05-10T09:20:00;98625.59;;;18.64;43.85
66627;BME280;53498;50.422;14.912;2023-05-10T09:22:26;98624.84;;;18.62;44.02
66627;BME280;53498;50.422;14.912;2023-05-10T09:25:14;98615.03;;;18.65;43.74
66627;BME280;53498;50.422;14.912;2023-05-10T09:27:41;98619.88;;;18.76;42.66
66627;BME280;53498;50.422;14.912;2023-05-10T09:30:23;98633.78;;;18.80;42.50
66627;BME280;53498;50.422;14.912;2023-05-10T09:32:49;98622.97;;;18.64;44.07
66627;BME280;53498;50.422;14.912;2023-05-10T09:35:23;98633.13;;;18.51;43.35
66627;BME280;53498;50.422;14.912;2023-05-10T09:37:52;98638.78;;;18.64;43.14
66627;BME280;53498;50.422;14.912;2023-05-10T09:40:20;98622.00;;;18.66;45.01
66627;BME280;53498;50.422;14.912;2023-05-10T09:43:06;98625.56;;;18.65;44.11
66627;BME280;53498;50.422;14.912;2023-05-10T09:45:33;98642.53;;;18.80;43.32
66627;BME280;53498;50.422;14.912;2023-05-10T09:48:00;98630.03;;;17.94;44.95
66627;BME280;53498;50.422;14.912;2023-05-10T09:50:27;98630.09;;;18.16;45.10
66627;BME280;53498;50.422;14.912;2023-05-10T09:52:58;98630.72;;;18.23;45.12
66627;BME280;53498;50.422;14.912;2023-05-10T09:55:26;98612.31;;;18.45;45.72
66627;BME280;53498;50.422;14.912;2023-05-10T09:58:02;98617.59;;;18.89;44.14
66627;BME280;53498;50.422;14.912;2023-05-10T10:00:35;98618.63;;;18.63;43.55
66627;BME280;53498;50.422;14.912;2023-05-10T10:03:01;98626.34;;;18.67;43.75
66627;BME280;53498;50.422;14.912;2023-05-10T10:05:31;98618.03;;;18.56;43.45
66627;BME280;53498;50.422;14.912;2023-05-10T10:07:58;98617.19;;;18.78;43.35
66627;BME280;53498;50.422;14.912;2023-05-10T10:10:25;98612.59;;;18.83;42.76
66627;BME280;53498;50.422;14.912;2023-05-10T10:12:51;98618.19;;;18.52;43.66
66627;BME280;53498;50.422;14.912;2023-05-10T10:15:17;98610.19;;;18.09;44.12
66627;BME280;53498;50.422;14.912;2023-05-10T10:17:43;98616.28;;;18.79;43.52
66627;BME280;53498;50.422;14.912;2023-05-10T10:20:09;98623.09;;;19.05;43.06
66627;BME280;53498;50.422;14.912;2023-05-10T10:22:36;98624.38;;;18.96;43.63
66627;BME280;53498;50.422;14.912;2023-05-10T10:25:04;98612.81;;;18.77;43.89
66627;BME280;53498;50.422;14.912;2023-05-10T10:27:39;98612.31;;;18.67;43.54
66627;BME280;53498;50.422;14.912;2023-05-10T10:30:16;98607.16;;;18.64;44.07
66627;BME280;53498;50.422;14.912;2023-05-10T10:35:53;98616.56;;;18.71;42.99
66627;BME280;53498;50.422;14.912;2023-05-10T10:38:20;98605.13;;;18.70;43.24
66627;BME280;53498;50.422;14.912;2023-05-10T10:40:47;98620.63;;;18.80;42.73
66627;BME280;53498;50.422;14.912;2023-05-10T10:43:27;98622.72;;;19.14;42.58
66627;BME280;53498;50.422;14.912;2023-05-10T10:46:15;98617.31;;;19.17;42.43
66627;BME280;53498;50.422;14.912;2023-05-10T10:49:08;98617.09;;;19.01;42.39
66627;BME280;53498;50.422;14.912;2023-05-10T10:51:37;98615.34;;;19.22;42.25
66627;BME280;53498;50.422;14.912;2023-05-10T10:54:10;98609.09;;;19.25;41.29
66627;BME280;53498;50.422;14.912;2023-05-10T10:56:36;98613.97;;;19.13;41.01
66627;BME280;53498;50.422;14.912;2023-05-10T10:59:01;98612.25;;;19.12;39.99
66627;BME280;53498;50.422;14.912;2023-05-10T11:01:32;98609.16;;;19.03;41.06
66627;BME280;53498;50.422;14.912;2023-05-10T11:06:33;98606.66;;;18.78;43.50
66627;BME280;53498;50.422;14.912;2023-05-10T11:08:59;98609.19;;;19.01;43.02
66627;BME280;53498;50.422;14.912;2023-05-10T11:11:30;98611.00;;;19.41;42.55
66627;BME280;53498;50.422;14.912;2023-05-10T11:14:02;98607.63;;;19.58;41.22
66627;BME280;53498;50.422;14.912;2023-05-10T11:16:41;98594.56;;;19.76;41.65
66627;BME280;53498;50.422;14.912;2023-05-10T11:19:09;98610.19;;;19.80;41.33
66627;BME280;53498;50.422;14.912;2023-05-10T11:24:33;98610.81;;;19.67;41.78
66627;BME280;53498;50.422;14.912;2023-05-10T11:26:59;98600.25;;;19.67;41.14
66627;BME280;53498;50.422;14.912;2023-05-10T11:29:25;98606.69;;;18.98;41.69
66627;BME280;53498;50.422;14.912;2023-05-10T11:31:52;98605.97;;;18.72;42.48
66627;BME280;53498;50.422;14.912;2023-05-10T11:34:31;98601.50;;;18.75;41.89
66627;BME280;53498;50.422;14.912;2023-05-10T11:36:59;98609.06;;;18.84;42.22
66627;BME280;53498;50.422;14.912;2023-05-10T11:39:29;98603.69;;;18.63;42.82
66627;BME280;53498;50.422;14.912;2023-05-10T11:41:56;98595.78;;;18.63;43.77
66627;BME280;53498;50.422;14.912;2023-05-10T11:44:21;98612.91;;;18.75;43.33
66627;BME280;53498;50.422;14.912;2023-05-10T11:46:48;98603.91;;;18.81;43.72
66627;BME280;53498;50.422;14.912;2023-05-10T11:49:14;98603.69;;;19.28;42.06
66627;BME280;53498;50.422;14.912;2023-05-10T11:51:39;98596.69;;;19.68;42.56
66627;BME280;53498;50.422;14.912;2023-05-10T11:54:08;98614.00;;;19.94;41.89
66627;BME280;53498;50.422;14.912;2023-05-10T11:56:36;98604.06;;;19.59;41.83
66627;BME280;53498;50.422;14.912;2023-05-10T11:59:01;98601.66;;;19.34;41.60
66627;BME280;53498;50.422;14.912;2023-05-10T12:01:28;98607.41;;;19.02;42.79
66627;BME280;53498;50.422;14.912;2023-05-10T12:03:56;98611.56;;;19.07;43.01
66627;BME280;53498;50.422;14.912;2023-05-10T12:06:29;98604.97;;;18.97;43.55
66627;BME280;53498;50.422;14.912;2023-05-10T12:08:56;98602.09;;;19.03;43.70
66627;BME280;53498;50.422;14.912;2023-05-10T12:11:26;98618.97;;;18.99;43.28
66627;BME280;53498;50.422;14.912;2023-05-10T12:13:54;98605.91;;;18.96;43.70
66627;BME280;53498;50.422;14.912;2023-05-10T12:16:22;98605.78;;;19.19;43.07
66627;BME280;53498;50.422;14.912;2023-05-10T12:18:49;98605.28;;;19.32;42.57
66627;BME280;53498;50.422;14.912;2023-05-10T12:21:17;98611.72;;;19.45;42.67
66627;BME280;53498;50.422;14.912;2023-05-10T12:23:45;98614.16;;;19.70;42.47
66627;BME280;53498;50.422;14.912;2023-05-10T12:26:11;98616.19;;;19.63;42.43
66627;BME280;53498;50.422;14.912;2023-05-10T12:28:37;98619.03;;;19.38;42.87
66627;BME280;53498;50.422;14.912;2023-05-10T12:31:03;98615.47;;;19.39;42.51
66627;BME280;53498;50.422;14.912;2023-05-10T12:33:40;98632.22;;;19.38;43.09
66627;BME280;53498;50.422;14.912;2023-05-10T12:36:10;98622.28;;;19.45;42.34
66627;BME280;53498;50.422;14.912;2023-05-10T12:38:38;98628.34;;;19.68;42.79
66627;BME280;53498;50.422;14.912;2023-05-10T12:41:09;98619.28;;;19.94;41.88
66627;BME280;53498;50.422;14.912;2023-05-10T12:43:35;98624.34;;;19.98;41.88
66627;BME280;53498;50.422;14.912;2023-05-10T12:46:06;98619.44;;;20.09;41.28
66627;BME280;53498;50.422;14.912;2023-05-10T12:48:32;98620.28;;;19.91;41.14
66627;BME280;53498;50.422;14.912;2023-05-10T12:51:00;98607.50;;;19.82;41.55
66627;BME280;53498;50.422;14.912;2023-05-10T12:53:26;98618.81;;;19.65;42.48
66627;BME280;53498;50.422;14.912;2023-05-10T12:55:52;98628.59;;;19.61;42.75
66627;BME280;53498;50.422;14.912;2023-05-10T12:58:18;98633.63;;;19.68;42.03
66627;BME280;53498;50.422;14.912;2023-05-10T13:00:44;98618.09;;;19.39;42.67
66627;BME280;53498;50.422;14.912;2023-05-10T13:03:10;98622.13;;;19.48;42.12
66627;BME280;53498;50.422;14.912;2023-05-10T13:05:36;98621.16;;;19.51;42.39
66627;BME280;53498;50.422;14.912;2023-05-10T13:08:01;98627.69;;;19.62;41.51
66627;BME280;53498;50.422;14.912;2023-05-10T13:10:29;98622.09;;;19.70;41.72
66627;BME280;53498;50.422;14.912;2023-05-10T13:12:56;98631.78;;;19.49;41.89
66627;BME280;53498;50.422;14.912;2023-05-10T13:15:22;98629.16;;;19.49;41.64
66627;BME280;53498;50.422;14.912;2023-05-10T13:17:53;98625.00;;;19.84;41.62
66627;BME280;53498;50.422;14.912;2023-05-10T13:20:18;98637.34;;;19.84;41.19
66627;BME280;53498;50.422;14.912;2023-05-10T13:22:44;98633.19;;;19.78;41.76